Terminal Aerodrome Forecast
Issued by NWS Spokane, WA

Home | Current Version | Previous Version | Text Only | Print | Product List | Glossary On
Versions: 1 2 3 4 5 6 7 8 9 10 11 12 13 14 15 16 17 18 19 20 21 22 23 24 25 26 27 28 29
000
FTUS46 KOTX 210520
TAFLWS
TAF
KLWS 210520Z 2106/2206 30015G22KT 6SM BLDU SCT090 SCT150 BKN200
     FM210800 24015G22KT P6SM -RA BKN040 OVC070
     FM211000 24015G22KT 6SM +RA SCT020 OVC040
     FM211200 24015G22KT P6SM -RA BKN040 OVC070
     FM211700 27004KT P6SM SCT040 OVC070
     FM220500 15005KT P6SM SCT070 SCT120 SCT200=

USA.gov is the U.S. government's official web portal to all federal, state and local government web resources and services.